Time;durP1;ratioP1;P1;durP2;ratioP2;P2;SDS_P1;SDS_P2;PMS_P1;PMS_P2;Temp;Humidity;BMP_temperature;BMP_pressure;BME280_temperature;BME280_humidity;BME280_pressure;Samples;Min_cycle;Max_cycle;Signal;HPM_P1;HPM_P2
2021/07/06 00:01:20;;;;;;;1.30;0.95;;;25.10;42.50;;;;;;4982027;28;20245;-49
2021/07/06 00:03:46;;;;;;;1.00;0.90;;;25.20;42.50;;;;;;4982284;28;20210;-47
2021/07/06 00:06:13;;;;;;;0.90;0.90;;;25.10;42.50;;;;;;4980738;28;20354;-47
2021/07/06 00:08:39;;;;;;;1.67;1.00;;;25.20;42.50;;;;;;4983402;28;20227;-51
2021/07/06 00:11:06;;;;;;;3.83;1.02;;;25.10;42.50;;;;;;4990206;28;20219;-47
2021/07/06 00:13:32;;;;;;;1.00;1.00;;;25.10;42.50;;;;;;4989809;28;20298;-49
2021/07/06 00:15:58;;;;;;;1.02;0.80;;;25.10;42.50;;;;;;4989746;28;20678;-49
2021/07/06 00:18:25;;;;;;;0.90;0.90;;;25.10;42.50;;;;;;4990796;28;20294;-48
2021/07/06 00:20:51;;;;;;;1.30;1.20;;;25.10;42.50;;;;;;4988714;28;20284;-49
2021/07/06 00:23:18;;;;;;;0.90;0.90;;;25.20;42.60;;;;;;4988127;28;20209;-50
2021/07/06 00:25:44;;;;;;;1.20;1.10;;;25.20;42.60;;;;;;4988797;28;20199;-50
2021/07/06 00:28:11;;;;;;;1.10;1.08;;;25.20;42.60;;;;;;4990308;28;20226;-52
2021/07/06 00:30:37;;;;;;;1.02;0.93;;;25.10;42.50;;;;;;4988666;28;20227;-52
2021/07/06 00:33:04;;;;;;;1.10;1.00;;;25.10;42.50;;;;;;4988071;28;20212;-51
2021/07/06 00:35:30;;;;;;;1.30;1.15;;;25.10;42.50;;;;;;4988857;28;20230;-46
2021/07/06 00:37:56;;;;;;;1.08;1.00;;;25.20;42.60;;;;;;4989091;28;20203;-50
2021/07/06 00:40:23;;;;;;;1.10;1.00;;;25.10;42.50;;;;;;4991224;28;20330;-47
2021/07/06 00:42:49;;;;;;;0.90;0.90;;;25.20;42.60;;;;;;4989796;28;20200;-48
2021/07/06 00:45:16;;;;;;;1.00;0.90;;;25.10;42.50;;;;;;4988269;28;20240;-50
2021/07/06 00:47:42;;;;;;;1.13;1.02;;;25.10;42.50;;;;;;4988027;28;20207;-48
2021/07/06 00:50:09;;;;;;;1.45;1.08;;;25.10;42.50;;;;;;4990417;28;20215;-46
2021/07/06 00:52:35;;;;;;;0.90;0.90;;;25.10;42.50;;;;;;4987592;28;20218;-48
2021/07/06 00:55:02;;;;;;;1.23;0.90;;;25.10;42.50;;;;;;4993462;28;20216;-48
2021/07/06 00:57:31;;;;;;;1.05;0.95;;;25.10;42.60;;;;;;4994594;28;20287;-53
2021/07/06 00:59:57;;;;;;;1.10;0.90;;;25.10;42.50;;;;;;4996900;28;20200;-51
2021/07/06 01:02:24;;;;;;;1.20;1.10;;;25.10;42.50;;;;;;4991280;28;20310;-50
2021/07/06 01:04:50;;;;;;;0.90;0.90;;;25.10;42.50;;;;;;4992900;28;20212;-49
2021/07/06 01:07:17;;;;;;;1.30;1.00;;;25.10;42.50;;;;;;4993924;28;20212;-50
2021/07/06 01:09:43;;;;;;;1.05;0.95;;;25.10;42.50;;;;;;4989911;28;20200;-48
2021/07/06 01:12:10;;;;;;;0.90;0.90;;;25.10;42.50;;;;;;4989210;28;20664;-49
2021/07/06 01:14:36;;;;;;;1.02;0.95;;;25.10;42.50;;;;;;4991653;28;20207;-49
2021/07/06 01:17:03;;;;;;;1.20;1.10;;;25.10;42.50;;;;;;4994409;28;20315;-50
2021/07/06 01:19:29;;;;;;;1.60;0.90;;;25.10;42.50;;;;;;4995536;28;20204;-51
2021/07/06 01:21:56;;;;;;;1.08;0.82;;;25.10;42.50;;;;;;4986362;28;20239;-48
2021/07/06 01:24:22;;;;;;;1.00;1.00;;;25.10;42.50;;;;;;4986710;28;20200;-52
2021/07/06 01:26:49;;;;;;;0.80;0.80;;;25.10;42.50;;;;;;4985957;28;20215;-49
2021/07/06 01:29:15;;;;;;;0.95;0.90;;;25.10;42.50;;;;;;4989192;28;20210;-53
2021/07/06 01:31:42;;;;;;;1.00;0.85;;;25.10;42.50;;;;;;4987952;28;20346;-49
2021/07/06 01:34:08;;;;;;;1.40;1.20;;;25.10;42.50;;;;;;4990404;28;20203;-53
2021/07/06 01:36:34;;;;;;;0.88;0.88;;;25.10;42.50;;;;;;4989592;28;20200;-52
2021/07/06 01:39:01;;;;;;;2.30;1.23;;;25.10;42.50;;;;;;4989418;28;20727;-50
2021/07/06 01:41:27;;;;;;;1.20;1.05;;;25.10;42.50;;;;;;4998669;28;20299;-50
2021/07/06 01:43:54;;;;;;;1.00;1.00;;;25.10;42.50;;;;;;4986252;28;20199;-53
2021/07/06 01:46:20;;;;;;;0.85;0.85;;;25.10;42.50;;;;;;4992480;28;20649;-50
2021/07/06 01:48:47;;;;;;;0.85;0.85;;;25.10;42.50;;;;;;4987734;28;20200;-52
2021/07/06 01:51:13;;;;;;;0.80;0.80;;;25.10;42.50;;;;;;4987836;28;20704;-50
2021/07/06 01:53:40;;;;;;;1.17;1.08;;;25.10;42.50;;;;;;4983949;28;21009;-48
2021/07/06 01:56:06;;;;;;;1.00;1.00;;;25.10;42.50;;;;;;4985785;28;20714;-49
2021/07/06 01:58:33;;;;;;;0.80;0.80;;;25.10;42.50;;;;;;4984883;28;20200;-53
2021/07/06 02:00:59;;;;;;;0.77;0.77;;;25.10;42.50;;;;;;4983376;28;20231;-49
2021/07/06 02:03:26;;;;;;;1.00;1.00;;;25.10;42.50;;;;;;4987668;28;20214;-52
2021/07/06 02:05:55;;;;;;;1.38;1.08;;;25.10;42.50;;;;;;4984835;28;20218;-52
2021/07/06 02:08:22;;;;;;;0.80;0.80;;;25.10;42.50;;;;;;4986453;28;20657;-53
2021/07/06 02:10:48;;;;;;;1.67;0.90;;;25.10;42.50;;;;;;4986378;28;20231;-50
2021/07/06 02:13:15;;;;;;;1.40;1.23;;;25.10;42.50;;;;;;4985528;28;20302;-52
2021/07/06 02:15:41;;;;;;;0.90;0.90;;;25.10;42.60;;;;;;4985197;28;20210;-52
2021/07/06 02:18:08;;;;;;;1.05;1.00;;;25.10;42.50;;;;;;4989324;28;20204;-55
2021/07/06 02:20:34;;;;;;;0.82;0.82;;;25.10;42.50;;;;;;4989552;28;20234;-54
2021/07/06 02:23:06;;;;;;;1.10;1.00;;;25.10;42.50;;;;;;4985875;28;20677;-52
2021/07/06 02:25:32;;;;;;;0.90;0.90;;;25.10;42.50;;;;;;4987087;28;20220;-53
2021/07/06 02:27:59;;;;;;;1.08;1.00;;;25.10;42.50;;;;;;4988093;28;20212;-53
2021/07/06 02:30:25;;;;;;;1.27;0.93;;;25.10;42.50;;;;;;4986212;28;20700;-52
2021/07/06 02:32:52;;;;;;;0.90;0.90;;;25.10;42.50;;;;;;4985669;28;20642;-55
2021/07/06 02:35:18;;;;;;;1.15;1.05;;;25.10;42.50;;;;;;4988131;28;20204;-48
2021/07/06 02:37:44;;;;;;;2.55;1.42;;;25.10;42.60;;;;;;4988330;28;20308;-48
2021/07/06 02:40:11;;;;;;;1.00;1.00;;;25.10;42.50;;;;;;4986397;28;20234;-49
2021/07/06 02:42:37;;;;;;;1.52;0.85;;;25.10;42.60;;;;;;4991544;28;20231;-48
2021/07/06 02:45:04;;;;;;;0.93;0.93;;;25.10;42.60;;;;;;4984723;28;20214;-47
2021/07/06 02:47:30;;;;;;;1.23;0.90;;;25.10;42.60;;;;;;4985276;28;20214;-50
2021/07/06 02:49:57;;;;;;;0.88;0.88;;;25.10;42.60;;;;;;4989260;28;20311;-50
2021/07/06 02:52:23;;;;;;;0.85;0.85;;;25.10;42.60;;;;;;4991401;28;20298;-48
2021/07/06 02:54:50;;;;;;;0.90;0.90;;;25.10;42.60;;;;;;4983886;28;20500;-54
2021/07/06 02:57:34;;;;;;;0.82;0.82;;;25.10;42.60;;;;;;4985989;28;20203;-49
2021/07/06 03:00:00;;;;;;;0.90;0.90;;;25.10;42.60;;;;;;4986076;28;20234;-49
2021/07/06 03:02:27;;;;;;;1.20;1.10;;;25.10;42.60;;;;;;4989200;28;20246;-50
2021/07/06 03:04:53;;;;;;;0.80;0.80;;;25.10;42.60;;;;;;4990715;28;20199;-49
2021/07/06 03:07:20;;;;;;;0.90;0.90;;;25.10;42.60;;;;;;4995289;28;20212;-52
2021/07/06 03:09:46;;;;;;;0.90;0.90;;;25.10;42.60;;;;;;4991725;28;20323;-52
2021/07/06 03:12:13;;;;;;;1.20;1.10;;;25.10;42.70;;;;;;4986542;28;20631;-53
2021/07/06 03:14:39;;;;;;;0.90;0.85;;;25.10;42.70;;;;;;4989125;28;20298;-48
2021/07/06 03:17:06;;;;;;;1.05;0.98;;;25.10;42.70;;;;;;4982474;28;20590;-47
2021/07/06 03:19:32;;;;;;;1.05;1.00;;;25.10;42.70;;;;;;4996095;28;20282;-50
2021/07/06 03:21:58;;;;;;;2.58;1.10;;;25.10;42.80;;;;;;4986910;28;20264;-50
2021/07/06 03:24:25;;;;;;;0.90;0.90;;;25.00;42.80;;;;;;4982708;28;20210;-49
2021/07/06 03:26:51;;;;;;;0.85;0.85;;;25.00;42.80;;;;;;4982702;28;20215;-51
2021/07/06 03:29:18;;;;;;;1.65;1.00;;;25.00;42.80;;;;;;4989263;28;20291;-48
2021/07/06 03:31:44;;;;;;;1.45;1.10;;;25.10;42.80;;;;;;4985651;28;20207;-51
2021/07/06 03:34:11;;;;;;;1.20;1.10;;;25.10;42.90;;;;;;4984588;28;20542;-49
2021/07/06 03:36:37;;;;;;;1.00;0.90;;;25.10;42.80;;;;;;4984951;28;20306;-50
2021/07/06 03:39:04;;;;;;;1.10;1.00;;;25.10;42.80;;;;;;4983579;28;20204;-49
2021/07/06 03:41:30;;;;;;;1.30;1.20;;;25.10;42.90;;;;;;4984529;28;20326;-50
2021/07/06 03:43:57;;;;;;;1.83;1.00;;;25.10;42.90;;;;;;4981400;28;20206;-52
2021/07/06 03:46:26;;;;;;;0.90;0.90;;;25.10;42.90;;;;;;4984816;28;20212;-49
2021/07/06 03:48:52;;;;;;;1.85;0.90;;;25.10;42.90;;;;;;4981987;28;20208;-50
2021/07/06 03:51:19;;;;;;;1.88;1.33;;;25.10;42.90;;;;;;4985213;28;20245;-49
2021/07/06 03:53:45;;;;;;;1.10;1.00;;;25.10;42.90;;;;;;4983517;28;20208;-47
2021/07/06 03:56:12;;;;;;;0.95;0.95;;;25.10;42.90;;;;;;4987322;28;20222;-53
2021/07/06 03:58:38;;;;;;;1.58;1.08;;;25.10;43.00;;;;;;4985220;28;20210;-47
2021/07/06 04:01:04;;;;;;;1.00;1.00;;;25.10;43.10;;;;;;4984359;28;20228;-51
2021/07/06 04:03:31;;;;;;;0.93;0.90;;;25.10;43.10;;;;;;4984172;28;20200;-54
2021/07/06 04:05:57;;;;;;;1.83;1.05;;;25.00;43.10;;;;;;4982983;28;20286;-47
2021/07/06 04:08:24;;;;;;;0.93;0.75;;;25.10;43.10;;;;;;4988121;28;20203;-48
2021/07/06 04:10:50;;;;;;;1.77;1.00;;;25.10;43.10;;;;;;4982097;28;20782;-47
2021/07/06 04:13:17;;;;;;;1.52;1.00;;;25.00;43.10;;;;;;4986954;28;20204;-48
2021/07/06 04:15:43;;;;;;;0.90;0.90;;;25.10;43.10;;;;;;4986489;28;20290;-47
2021/07/06 04:18:10;;;;;;;1.27;0.95;;;25.10;43.10;;;;;;4984724;28;20200;-48
2021/07/06 04:20:36;;;;;;;1.63;0.80;;;25.00;43.00;;;;;;4985962;28;20224;-50
2021/07/06 04:23:03;;;;;;;0.80;0.80;;;25.10;43.00;;;;;;4984751;28;20234;-50
2021/07/06 04:25:31;;;;;;;1.20;0.90;;;25.10;43.00;;;;;;4982102;28;20196;-49
2021/07/06 04:27:57;;;;;;;1.23;1.13;;;25.10;43.00;;;;;;4981425;28;20294;-49
2021/07/06 04:30:24;;;;;;;0.85;0.85;;;25.10;43.00;;;;;;4982409;28;20226;-52
2021/07/06 04:32:50;;;;;;;0.95;0.95;;;25.10;43.00;;;;;;4986710;28;20302;-47
2021/07/06 04:35:18;;;;;;;0.80;0.80;;;25.10;43.00;;;;;;4988903;28;20206;-49
2021/07/06 04:37:45;;;;;;;0.93;0.90;;;25.10;43.00;;;;;;4983638;28;20207;-50
2021/07/06 04:40:11;;;;;;;2.92;1.00;;;25.10;43.00;;;;;;4981663;28;20223;-51
2021/07/06 04:42:37;;;;;;;0.98;0.90;;;25.10;43.00;;;;;;4981859;28;20235;-51
2021/07/06 04:45:04;;;;;;;0.80;0.80;;;25.10;43.00;;;;;;4982170;28;20200;-49
2021/07/06 04:47:30;;;;;;;0.80;0.80;;;25.10;43.00;;;;;;4984898;28;20230;-48
2021/07/06 04:49:57;;;;;;;0.93;0.93;;;25.10;43.00;;;;;;4982631;28;20346;-52
2021/07/06 04:52:23;;;;;;;1.63;1.10;;;25.10;42.90;;;;;;4989082;28;20287;-51
2021/07/06 04:54:50;;;;;;;1.00;0.90;;;25.10;42.90;;;;;;4982217;28;22019;-53
2021/07/06 04:57:21;;;;;;;1.05;0.90;;;25.10;42.90;;;;;;4986547;28;20230;-52
2021/07/06 04:59:47;;;;;;;2.35;1.08;;;25.10;42.90;;;;;;4995869;28;20215;-47
2021/07/06 05:02:14;;;;;;;1.10;1.00;;;25.10;42.90;;;;;;4997140;28;20293;-50
2021/07/06 05:04:40;;;;;;;1.05;0.95;;;25.10;42.90;;;;;;4986003;28;20287;-48
2021/07/06 05:07:06;;;;;;;1.85;0.95;;;25.10;42.90;;;;;;4988285;28;20204;-52
2021/07/06 05:09:33;;;;;;;1.02;1.00;;;25.10;42.90;;;;;;4985072;28;20271;-51
2021/07/06 05:11:59;;;;;;;0.90;0.90;;;25.10;42.90;;;;;;4988166;28;20204;-52
2021/07/06 05:14:26;;;;;;;0.70;0.70;;;25.00;42.80;;;;;;4987264;28;20555;-50
2021/07/06 05:16:52;;;;;;;0.90;0.90;;;25.10;42.80;;;;;;4997247;28;20302;-52
2021/07/06 05:19:19;;;;;;;0.95;0.93;;;25.10;42.80;;;;;;5006779;28;20314;-49
2021/07/06 05:21:45;;;;;;;0.95;0.95;;;25.10;42.90;;;;;;4989740;28;20260;-52
2021/07/06 05:24:12;;;;;;;0.80;0.80;;;25.10;42.80;;;;;;4989360;28;20283;-51
2021/07/06 05:26:39;;;;;;;1.15;0.88;;;25.10;42.80;;;;;;4980708;28;20208;-50
2021/07/06 05:29:05;;;;;;;1.10;1.10;;;25.10;42.80;;;;;;4988875;28;20226;-54
2021/07/06 05:31:32;;;;;;;1.90;1.05;;;25.10;42.80;;;;;;4985850;28;20690;-49
2021/07/06 05:33:58;;;;;;;1.13;1.08;;;25.10;42.70;;;;;;4987267;28;20258;-50
2021/07/06 05:36:25;;;;;;;0.73;0.73;;;25.10;42.70;;;;;;4986261;28;20221;-50
2021/07/06 05:38:53;;;;;;;1.10;1.00;;;25.10;42.70;;;;;;4983992;28;20203;-52
2021/07/06 05:41:19;;;;;;;3.72;1.20;;;25.10;42.80;;;;;;4984396;28;20236;-48
2021/07/06 05:43:46;;;;;;;0.80;0.80;;;25.10;42.60;;;;;;4984133;28;20204;-53
2021/07/06 05:46:12;;;;;;;1.23;1.10;;;25.10;42.50;;;;;;4986185;28;20203;-49
2021/07/06 05:48:39;;;;;;;1.30;1.15;;;25.10;42.40;;;;;;4983169;28;20596;-49
2021/07/06 05:51:05;;;;;;;5.30;1.20;;;25.10;41.80;;;;;;4982867;28;20196;-48
2021/07/06 05:53:32;;;;;;;2.67;1.30;;;25.00;42.20;;;;;;4979621;28;20207;-48
2021/07/06 05:55:58;;;;;;;5.68;1.30;;;25.00;41.40;;;;;;4973250;28;20725;-46
2021/07/06 05:58:24;;;;;;;2.33;1.40;;;24.90;40.80;;;;;;4973493;28;22099;-49
2021/07/06 06:00:51;;;;;;;3.03;1.25;;;24.90;40.70;;;;;;4974061;28;20226;-48
2021/07/06 06:03:17;;;;;;;2.47;1.30;;;24.90;40.70;;;;;;4972927;28;20262;-48
2021/07/06 06:05:44;;;;;;;2.30;1.50;;;24.90;40.50;;;;;;4972238;28;20267;-48
2021/07/06 06:08:11;;;;;;;1.30;1.10;;;24.90;40.50;;;;;;4974896;28;20214;-50
2021/07/06 06:10:38;;;;;;;1.20;1.10;;;24.90;40.70;;;;;;4975444;28;20234;-46
2021/07/06 06:13:04;;;;;;;2.25;1.30;;;25.00;40.50;;;;;;4989016;28;20200;-46
2021/07/06 06:15:31;;;;;;;1.40;1.30;;;25.00;40.50;;;;;;4988742;28;20211;-49
2021/07/06 06:17:57;;;;;;;1.50;1.40;;;25.00;41.00;;;;;;4990816;28;20204;-48
2021/07/06 06:20:24;;;;;;;2.17;1.33;;;25.00;41.00;;;;;;4989513;28;20767;-45
2021/07/06 06:22:50;;;;;;;3.13;1.25;;;25.10;41.10;;;;;;4988135;28;20770;-48
2021/07/06 06:25:17;;;;;;;1.55;1.13;;;25.10;41.30;;;;;;4987457;28;20291;-52
2021/07/06 06:27:43;;;;;;;3.30;1.40;;;25.10;41.50;;;;;;4988501;28;20208;-51
2021/07/06 06:30:09;;;;;;;2.70;1.58;;;25.10;41.20;;;;;;4988654;28;20230;-47
2021/07/06 06:32:36;;;;;;;2.25;1.50;;;25.10;41.50;;;;;;4986472;28;20202;-46
2021/07/06 06:35:02;;;;;;;1.65;1.50;;;25.10;41.30;;;;;;4987124;28;20266;-48
2021/07/06 06:37:29;;;;;;;3.83;2.25;;;25.10;41.10;;;;;;4979311;28;20208;-48
2021/07/06 06:39:55;;;;;;;1.75;1.20;;;25.10;41.00;;;;;;4988325;28;20224;-48
2021/07/06 06:42:22;;;;;;;1.63;1.13;;;25.10;40.90;;;;;;4992435;28;20231;-50
2021/07/06 06:44:48;;;;;;;1.58;1.20;;;25.10;40.80;;;;;;4997186;28;20204;-49
2021/07/06 06:47:17;;;;;;;1.40;1.30;;;25.10;40.60;;;;;;4994511;28;20283;-46
2021/07/06 06:49:43;;;;;;;3.70;1.25;;;25.10;40.50;;;;;;4988270;28;20264;-48
2021/07/06 06:52:10;;;;;;;1.23;1.13;;;25.20;40.70;;;;;;4991562;28;20207;-48
2021/07/06 06:54:38;;;;;;;1.00;1.00;;;25.10;40.80;;;;;;4989113;28;20287;-47
2021/07/06 06:57:04;;;;;;;1.50;1.38;;;25.20;40.80;;;;;;4990314;28;20253;-51
2021/07/06 06:59:31;;;;;;;1.20;1.10;;;25.20;40.80;;;;;;5001041;28;20605;-49
2021/07/06 07:04:41;;;;;;;2.08;1.23;;;25.20;40.90;;;;;;4995586;28;20195;-48
2021/07/06 07:07:08;;;;;;;2.00;1.27;;;25.20;40.80;;;;;;4991239;28;20212;-48
2021/07/06 07:09:34;;;;;;;1.25;1.15;;;25.20;40.90;;;;;;5003286;28;20227;-47
2021/07/06 07:12:00;;;;;;;1.20;1.10;;;25.20;41.00;;;;;;5006528;28;20743;-48
2021/07/06 07:14:27;;;;;;;1.30;1.20;;;25.20;40.90;;;;;;4989933;28;20647;-46
2021/07/06 07:16:53;;;;;;;2.47;1.27;;;25.20;41.00;;;;;;4988715;28;20210;-51
2021/07/06 07:19:20;;;;;;;1.77;1.13;;;25.20;41.00;;;;;;4988850;28;20234;-50
2021/07/06 07:21:46;;;;;;;1.40;1.30;;;25.20;41.00;;;;;;4991951;28;20209;-49
2021/07/06 07:24:13;;;;;;;1.50;0.93;;;25.20;41.00;;;;;;4991029;28;20294;-51
2021/07/06 07:26:39;;;;;;;1.30;1.20;;;25.20;41.00;;;;;;4989719;28;20211;-49
2021/07/06 07:29:06;;;;;;;1.20;1.10;;;25.20;41.00;;;;;;4990305;28;20591;-52
2021/07/06 07:31:32;;;;;;;1.38;1.27;;;25.20;41.00;;;;;;4991820;28;20203;-46
2021/07/06 07:33:59;;;;;;;1.10;1.10;;;25.20;41.00;;;;;;4990577;28;20326;-49
2021/07/06 07:36:26;;;;;;;1.00;0.93;;;25.20;41.00;;;;;;4990082;28;20593;-47
2021/07/06 07:38:52;;;;;;;1.58;1.10;;;25.20;41.00;;;;;;4990517;28;20231;-52
2021/07/06 07:41:19;;;;;;;2.38;1.40;;;25.20;41.00;;;;;;4991612;28;20294;-51
2021/07/06 07:43:45;;;;;;;1.45;1.35;;;25.20;41.00;;;;;;4988976;28;20238;-45
2021/07/06 07:46:12;;;;;;;1.23;1.17;;;25.20;41.20;;;;;;4991397;28;20212;-48
2021/07/06 07:48:38;;;;;;;1.23;1.13;;;25.20;41.30;;;;;;4988252;28;20302;-47
2021/07/06 07:51:05;;;;;;;1.30;1.20;;;25.20;41.20;;;;;;4988692;28;20205;-49
2021/07/06 07:53:31;;;;;;;2.25;1.13;;;25.20;41.20;;;;;;4987959;28;20298;-51
2021/07/06 07:55:58;;;;;;;4.28;1.58;;;25.20;41.20;;;;;;4985893;28;20250;-49
2021/07/06 07:58:24;;;;;;;8.30;2.13;;;25.30;42.40;;;;;;4983270;28;20342;-47
2021/07/06 08:00:50;;;;;;;3.67;2.13;;;25.20;43.10;;;;;;4990073;28;20220;-47
2021/07/06 08:03:17;;;;;;;14.70;2.40;;;25.30;43.20;;;;;;4985474;28;20235;-46
2021/07/06 08:05:43;;;;;;;7.38;2.60;;;25.30;42.80;;;;;;4989524;28;20203;-46
2021/07/06 08:08:10;;;;;;;7.30;2.25;;;25.30;42.60;;;;;;4990400;28;20282;-51
2021/07/06 08:10:36;;;;;;;6.10;2.45;;;25.30;43.10;;;;;;4989601;28;20200;-52
2021/07/06 08:13:03;;;;;;;4.28;2.22;;;25.30;42.90;;;;;;4988179;28;20313;-48
2021/07/06 08:15:30;;;;;;;5.18;2.33;;;25.30;43.00;;;;;;4986181;28;20212;-53
2021/07/06 08:17:56;;;;;;;6.10;2.03;;;25.30;44.00;;;;;;4983110;28;20396;-47
2021/07/06 08:20:22;;;;;;;5.10;2.25;;;25.30;43.60;;;;;;4980657;28;20202;-50
2021/07/06 08:22:51;;;;;;;4.53;2.22;;;25.30;44.00;;;;;;4981077;28;20230;-49
2021/07/06 08:25:17;;;;;;;4.22;1.90;;;25.30;44.40;;;;;;4981137;28;20887;-47
2021/07/06 08:27:44;;;;;;;4.35;1.90;;;25.30;44.30;;;;;;4981428;28;20610;-50
2021/07/06 08:30:10;;;;;;;3.83;1.58;;;25.30;44.10;;;;;;4984745;28;20259;-50
2021/07/06 08:32:37;;;;;;;3.05;1.67;;;25.30;44.00;;;;;;4993805;28;20295;-51
2021/07/06 08:35:05;;;;;;;5.03;1.70;;;25.30;44.00;;;;;;4995132;28;20290;-49
2021/07/06 08:37:32;;;;;;;3.63;1.63;;;25.30;44.00;;;;;;4993262;28;20229;-50
2021/07/06 08:39:59;;;;;;;4.82;1.88;;;25.30;44.00;;;;;;4995004;28;20699;-48
2021/07/06 08:42:25;;;;;;;4.05;1.88;;;25.40;44.00;;;;;;4993249;28;20226;-51
2021/07/06 08:44:52;;;;;;;3.60;1.70;;;25.30;44.10;;;;;;4994035;28;20204;-52
2021/07/06 08:47:18;;;;;;;5.60;2.08;;;25.30;44.00;;;;;;4993993;28;20200;-52
2021/07/06 08:49:45;;;;;;;3.30;1.60;;;25.30;44.00;;;;;;4994778;28;20303;-50
2021/07/06 08:52:11;;;;;;;3.65;1.75;;;25.30;44.00;;;;;;4994161;28;20210;-48
2021/07/06 08:54:38;;;;;;;3.08;1.88;;;25.30;44.00;;;;;;4993418;28;20210;-49
2021/07/06 08:57:04;;;;;;;3.25;1.73;;;25.30;44.10;;;;;;4992140;28;20214;-46
2021/07/06 08:59:30;;;;;;;5.05;1.90;;;25.30;44.00;;;;;;4993714;28;20227;-48
2021/07/06 09:01:57;;;;;;;2.45;1.92;;;25.30;44.10;;;;;;4991748;28;20203;-46
2021/07/06 09:04:24;;;;;;;2.40;1.38;;;25.30;44.20;;;;;;4989391;28;20222;-48
2021/07/06 09:06:51;;;;;;;3.35;2.20;;;25.30;44.20;;;;;;4993453;28;20211;-46
2021/07/06 09:09:18;;;;;;;2.63;1.60;;;25.30;44.30;;;;;;4992754;28;20223;-49
2021/07/06 09:11:45;;;;;;;4.07;1.77;;;25.30;44.30;;;;;;4992074;28;20216;-48
2021/07/06 09:14:11;;;;;;;4.38;1.40;;;25.30;44.00;;;;;;4990380;28;20272;-51
2021/07/06 09:16:37;;;;;;;2.78;1.48;;;25.30;44.20;;;;;;4991962;28;20235;-47
2021/07/06 09:19:04;;;;;;;3.53;2.10;;;25.30;44.50;;;;;;4992453;28;20399;-51
2021/07/06 09:21:30;;;;;;;1.80;1.30;;;25.30;44.40;;;;;;4990546;28;20204;-49
2021/07/06 09:23:58;;;;;;;3.17;1.60;;;25.30;44.30;;;;;;4992810;28;20235;-51
2021/07/06 09:26:25;;;;;;;2.30;1.50;;;25.30;44.10;;;;;;4991285;28;20247;-46
2021/07/06 09:28:52;;;;;;;2.33;1.30;;;25.30;44.20;;;;;;4992036;28;20227;-51
2021/07/06 09:31:18;;;;;;;2.05;1.33;;;25.30;44.20;;;;;;4991543;28;20222;-51
2021/07/06 09:33:45;;;;;;;3.10;1.90;;;25.30;44.10;;;;;;4990573;28;20307;-50
2021/07/06 09:36:11;;;;;;;2.17;1.63;;;25.30;44.20;;;;;;4992042;28;20203;-47
2021/07/06 09:38:38;;;;;;;3.05;1.50;;;25.30;44.00;;;;;;4991372;28;20310;-52
2021/07/06 09:41:04;;;;;;;2.17;1.60;;;25.30;44.00;;;;;;4990387;28;20216;-50
2021/07/06 09:43:31;;;;;;;2.13;1.70;;;25.30;44.00;;;;;;4992597;28;20232;-47
2021/07/06 09:45:58;;;;;;;2.80;1.45;;;25.30;44.00;;;;;;4992751;28;20219;-51
2021/07/06 09:48:25;;;;;;;2.30;1.95;;;25.30;44.00;;;;;;4992752;28;20230;-49
2021/07/06 09:50:51;;;;;;;2.35;1.70;;;25.30;44.00;;;;;;4993471;28;20676;-48
2021/07/06 09:53:17;;;;;;;1.55;1.42;;;25.30;44.00;;;;;;4991148;28;20239;-50
2021/07/06 09:55:44;;;;;;;2.63;1.50;;;25.30;44.00;;;;;;4990265;28;20214;-47
2021/07/06 09:58:10;;;;;;;2.63;1.73;;;25.30;44.10;;;;;;4993559;28;20307;-51
2021/07/06 10:00:37;;;;;;;2.22;1.40;;;25.30;44.00;;;;;;4993172;28;20251;-48
2021/07/06 10:03:03;;;;;;;2.25;1.60;;;25.30;44.00;;;;;;4991333;28;20861;-49
2021/07/06 10:05:31;;;;;;;1.77;1.50;;;25.30;44.00;;;;;;4991945;28;20207;-48
2021/07/06 10:07:57;;;;;;;1.75;1.33;;;25.30;44.00;;;;;;4992595;28;20228;-48
2021/07/06 10:10:24;;;;;;;2.20;1.40;;;25.30;44.00;;;;;;4992564;28;20208;-47
2021/07/06 10:12:50;;;;;;;1.58;1.40;;;25.30;44.00;;;;;;4992355;28;20218;-52
2021/07/06 10:15:17;;;;;;;1.48;1.38;;;25.30;44.00;;;;;;4992366;28;20298;-58
2021/07/06 10:17:43;;;;;;;2.88;1.75;;;25.30;44.00;;;;;;4992169;28;20224;-55
2021/07/06 10:20:10;;;;;;;2.05;1.50;;;25.30;44.00;;;;;;4982853;28;20565;-55
2021/07/06 10:22:36;;;;;;;1.67;1.58;;;25.30;44.00;;;;;;5001919;28;20198;-46
2021/07/06 10:25:03;;;;;;;2.92;1.40;;;25.30;43.60;;;;;;4999835;28;20200;-50
2021/07/06 10:27:32;;;;;;;2.22;1.20;;;25.30;43.50;;;;;;4992040;28;20258;-54
2021/07/06 10:29:58;;;;;;;8.13;1.60;;;25.30;43.30;;;;;;4991066;28;20212;-50
2021/07/06 10:32:25;;;;;;;1.88;1.58;;;25.40;43.40;;;;;;4992581;28;20644;-49
2021/07/06 10:34:51;;;;;;;2.67;1.25;;;25.40;43.40;;;;;;4991003;28;20283;-51
2021/07/06 10:37:17;;;;;;;3.05;1.70;;;25.40;43.40;;;;;;4989121;28;20322;-46
2021/07/06 10:39:44;;;;;;;5.07;1.92;;;25.40;43.40;;;;;;5010701;28;20211;-47
2021/07/06 10:42:11;;;;;;;3.47;1.65;;;25.40;43.60;;;;;;4993976;28;22158;-51
2021/07/06 10:44:39;;;;;;;3.33;1.70;;;25.40;43.50;;;;;;4994062;28;20267;-49
2021/07/06 10:47:06;;;;;;;3.63;1.70;;;25.30;43.60;;;;;;4991891;28;20303;-48
2021/07/06 10:49:33;;;;;;;3.95;1.70;;;25.30;43.70;;;;;;4989724;28;20203;-48
2021/07/06 10:52:01;;;;;;;1.42;1.27;;;25.40;43.70;;;;;;4989072;28;20207;-53
2021/07/06 10:54:28;;;;;;;3.47;1.52;;;25.30;43.60;;;;;;4987553;28;20208;-48
2021/07/06 10:56:54;;;;;;;2.58;1.90;;;25.40;43.70;;;;;;4987957;28;20255;-53
2021/07/06 10:59:21;;;;;;;3.53;1.60;;;25.30;43.70;;;;;;4995050;28;20201;-47
2021/07/06 11:01:47;;;;;;;2.83;1.90;;;25.30;43.60;;;;;;4991449;28;20196;-47
2021/07/06 11:04:14;;;;;;;2.50;1.55;;;25.40;43.60;;;;;;4987722;28;20246;-51
2021/07/06 11:06:40;;;;;;;2.58;1.70;;;25.30;43.40;;;;;;4991546;28;20235;-50
2021/07/06 11:09:06;;;;;;;3.83;1.65;;;25.30;43.40;;;;;;4992056;28;20207;-50
2021/07/06 11:11:33;;;;;;;1.85;1.40;;;25.40;43.60;;;;;;4992329;28;20219;-49
2021/07/06 11:14:00;;;;;;;2.60;1.42;;;25.40;43.50;;;;;;4989828;28;20406;-51
2021/07/06 11:16:26;;;;;;;1.73;1.63;;;25.40;43.60;;;;;;4990465;28;20690;-48
2021/07/06 11:18:53;;;;;;;1.85;1.30;;;25.40;43.40;;;;;;4987963;28;20707;-45
2021/07/06 11:21:19;;;;;;;2.47;1.30;;;25.40;43.60;;;;;;4990046;28;20281;-47
2021/07/06 11:23:46;;;;;;;1.50;1.33;;;25.40;43.70;;;;;;4990246;28;20310;-47
2021/07/06 11:26:16;;;;;;;1.65;1.30;;;25.40;43.70;;;;;;4986392;28;20790;-47
2021/07/06 11:28:42;;;;;;;2.17;1.30;;;25.40;43.50;;;;;;4983381;28;20599;-49
2021/07/06 11:31:09;;;;;;;1.77;1.20;;;25.40;43.50;;;;;;4991511;28;20290;-50
2021/07/06 11:33:37;;;;;;;1.25;1.15;;;25.40;43.50;;;;;;4990904;28;20218;-48
2021/07/06 11:36:03;;;;;;;2.33;1.70;;;25.40;43.40;;;;;;4987481;28;20207;-47
2021/07/06 11:38:30;;;;;;;1.58;1.48;;;25.40;43.40;;;;;;4989436;28;20216;-47
2021/07/06 11:40:56;;;;;;;1.60;1.50;;;25.40;43.30;;;;;;4985732;28;20629;-51
2021/07/06 11:43:22;;;;;;;1.77;1.60;;;25.40;43.30;;;;;;4982318;28;20603;-49
2021/07/06 11:45:49;;;;;;;1.75;1.48;;;25.40;43.30;;;;;;4990148;28;20227;-47
2021/07/06 11:48:15;;;;;;;1.70;1.50;;;25.40;43.30;;;;;;4985277;28;20310;-51
2021/07/06 11:50:42;;;;;;;1.92;1.50;;;25.40;43.40;;;;;;4982481;28;20210;-46
2021/07/06 11:53:08;;;;;;;1.63;1.52;;;25.40;43.40;;;;;;4980581;28;20207;-44
2021/07/06 11:55:35;;;;;;;1.60;1.50;;;25.40;43.40;;;;;;4985696;28;20219;-47
2021/07/06 11:58:01;;;;;;;1.80;1.55;;;25.40;43.40;;;;;;4979783;28;20229;-48
2021/07/06 12:00:28;;;;;;;1.40;1.30;;;25.40;43.40;;;;;;4984320;28;20623;-46
2021/07/06 12:02:54;;;;;;;1.33;1.20;;;25.40;43.30;;;;;;4979205;28;20224;-51
2021/07/06 12:05:21;;;;;;;1.30;1.20;;;25.40;43.40;;;;;;4982269;28;20963;-49
2021/07/06 12:07:47;;;;;;;1.83;1.30;;;25.40;43.40;;;;;;4983321;28;20315;-49
2021/07/06 12:10:13;;;;;;;1.77;1.30;;;25.40;43.40;;;;;;4983042;28;20286;-47
2021/07/06 12:12:40;;;;;;;1.67;1.27;;;25.40;43.30;;;;;;4987468;28;20210;-46
2021/07/06 12:15:07;;;;;;;1.52;1.35;;;25.40;43.30;;;;;;4978831;28;20343;-45
2021/07/06 12:17:33;;;;;;;2.75;1.40;;;25.40;43.30;;;;;;4983617;28;20282;-50
2021/07/06 12:20:00;;;;;;;1.95;1.42;;;25.40;43.30;;;;;;4980609;28;20282;-50
2021/07/06 12:22:26;;;;;;;1.48;1.13;;;25.40;43.20;;;;;;4983021;28;20218;-48
2021/07/06 12:24:53;;;;;;;1.40;1.30;;;25.40;43.20;;;;;;4983626;28;20249;-52
2021/07/06 12:27:19;;;;;;;1.27;1.15;;;25.40;43.10;;;;;;4983668;28;20234;-47
2021/07/06 12:29:46;;;;;;;1.02;1.02;;;25.40;43.10;;;;;;4983303;28;20204;-53
2021/07/06 12:32:13;;;;;;;1.23;1.13;;;25.40;43.10;;;;;;4986921;28;20231;-49
2021/07/06 12:34:40;;;;;;;2.00;1.30;;;25.40;43.00;;;;;;4981610;28;20208;-47
2021/07/06 12:37:08;;;;;;;2.78;1.10;;;25.40;43.00;;;;;;4980925;28;20234;-47
2021/07/06 12:39:34;;;;;;;1.20;1.10;;;25.40;43.00;;;;;;4988833;28;20200;-45
2021/07/06 12:42:01;;;;;;;1.38;1.17;;;25.40;42.90;;;;;;4988840;28;20211;-46
2021/07/06 12:44:27;;;;;;;0.93;0.90;;;25.40;42.80;;;;;;4985619;28;20696;-50
2021/07/06 12:46:54;;;;;;;2.38;1.40;;;25.40;42.80;;;;;;4982787;28;20643;-51